Time;durP1;ratioP1;P1;durP2;ratioP2;P2;SDS_P1;SDS_P2;PMS_P1;PMS_P2;Temp;Humidity;BMP_temperature;BMP_pressure;BME280_temperature;BME280_humidity;BME280_pressure;Samples;Min_cycle;Max_cycle;Signal;HPM_P1;HPM_P2
2021/12/31 00:02:17;;;;;;;16.40;4.57;;;;;;;;;;5074251;28;20044;-74
2021/12/31 00:04:43;;;;;;;19.38;4.20;;;;;;;;;;5092971;28;20036;-73
2021/12/31 00:07:09;;;;;;;18.98;4.40;;;;;;;;;;5075028;28;20120;-74
2021/12/31 00:09:36;;;;;;;16.65;4.22;;;;;;;;;;5073659;28;20058;-74
2021/12/31 00:12:07;;;;;;;12.90;4.30;;;;;;;;;;5072848;28;20613;-74
2021/12/31 00:14:33;;;;;;;18.00;4.45;;;;;;;;;;5073724;28;20040;-75
2021/12/31 00:16:59;;;;;;;21.08;5.07;;;;;;;;;;5072919;28;20157;-75
2021/12/31 00:19:29;;;;;;;22.90;4.35;;;;;;;;;;5091270;28;20523;-75
2021/12/31 00:21:55;;;;;;;17.52;4.25;;;;;;;;;;5097236;28;20047;-76
2021/12/31 00:24:24;;;;;;;17.90;5.18;;;;;;;;;;5096836;28;20039;-73
2021/12/31 00:26:50;;;;;;;19.35;4.85;;;;;;;;;;5097431;28;20043;-75
2021/12/31 00:29:16;;;;;;;22.63;5.57;;;;;;;;;;5080767;28;20097;-75
2021/12/31 00:31:42;;;;;;;17.23;4.93;;;;;;;;;;5097046;28;20131;-75
2021/12/31 00:34:08;;;;;;;13.68;3.90;;;;;;;;;;5096675;28;20126;-74
2021/12/31 00:36:38;;;;;;;16.65;4.57;;;;;;;;;;5097689;28;20134;-75
2021/12/31 00:39:04;;;;;;;17.38;4.47;;;;;;;;;;5079927;28;20089;-74
2021/12/31 00:41:30;;;;;;;20.52;5.63;;;;;;;;;;5097152;28;20064;-75
2021/12/31 00:43:56;;;;;;;13.43;4.90;;;;;;;;;;5080569;28;20040;-75
2021/12/31 00:46:22;;;;;;;20.33;4.57;;;;;;;;;;5096417;28;20541;-75
2021/12/31 00:48:48;;;;;;;20.90;5.28;;;;;;;;;;5095758;28;20208;-73
2021/12/31 00:51:14;;;;;;;16.75;4.68;;;;;;;;;;5097327;28;20100;-73
2021/12/31 00:53:40;;;;;;;20.15;5.75;;;;;;;;;;5096582;28;20043;-73
2021/12/31 00:56:06;;;;;;;18.13;4.80;;;;;;;;;;5096995;28;20043;-72
2021/12/31 00:58:32;;;;;;;16.25;4.43;;;;;;;;;;5097111;28;20051;-72
2021/12/31 01:00:58;;;;;;;22.58;4.95;;;;;;;;;;5096165;28;20392;-70
2021/12/31 01:03:24;;;;;;;16.70;3.80;;;;;;;;;;5096068;28;20050;-70
2021/12/31 01:05:50;;;;;;;14.45;4.20;;;;;;;;;;5096670;28;20048;-71
2021/12/31 01:08:16;;;;;;;20.67;4.57;;;;;;;;;;5079217;28;20392;-70
2021/12/31 01:10:42;;;;;;;16.35;4.63;;;;;;;;;;5097008;28;20084;-70
2021/12/31 01:13:19;;;;;;;16.67;3.78;;;;;;;;;;5095997;28;20044;-71
2021/12/31 01:15:46;;;;;;;23.67;5.85;;;;;;;;;;5096908;28;20054;-71
2021/12/31 01:20:40;;;;;;;20.60;4.68;;;;;;;;;;5096387;28;20052;-71
2021/12/31 01:23:08;;;;;;;18.30;4.70;;;;;;;;;;5096145;28;20062;-71
2021/12/31 01:25:34;;;;;;;19.13;4.82;;;;;;;;;;5079597;28;20071;-71
2021/12/31 01:28:00;;;;;;;21.92;4.93;;;;;;;;;;5095841;28;20078;-72
2021/12/31 01:30:26;;;;;;;20.38;4.47;;;;;;;;;;5095964;28;20067;-73
2021/12/31 01:32:55;;;;;;;18.65;4.93;;;;;;;;;;5096146;28;20087;-72
2021/12/31 01:35:21;;;;;;;23.00;4.72;;;;;;;;;;5095510;28;20040;-72
2021/12/31 01:37:47;;;;;;;18.10;3.70;;;;;;;;;;5095647;28;20131;-73
2021/12/31 01:40:13;;;;;;;16.05;4.47;;;;;;;;;;5096590;28;20438;-73
2021/12/31 01:42:40;;;;;;;18.85;5.85;;;;;;;;;;5095432;28;20449;-72
2021/12/31 01:45:08;;;;;;;21.02;5.03;;;;;;;;;;5095911;28;20519;-72
2021/12/31 01:47:36;;;;;;;15.75;4.85;;;;;;;;;;5096076;28;20031;-72
2021/12/31 01:50:07;;;;;;;20.30;5.55;;;;;;;;;;5095299;28;20047;-72
2021/12/31 01:52:40;;;;;;;14.38;4.65;;;;;;;;;;5096393;28;20404;-72
2021/12/31 01:55:09;;;;;;;15.85;4.63;;;;;;;;;;5096068;28;20107;-73
2021/12/31 01:57:35;;;;;;;15.93;4.45;;;;;;;;;;5082973;28;20043;-72
2021/12/31 02:00:01;;;;;;;20.60;5.07;;;;;;;;;;5075642;28;20127;-72
2021/12/31 02:02:27;;;;;;;17.15;4.80;;;;;;;;;;5079334;28;20077;-72
2021/12/31 02:04:53;;;;;;;19.50;4.50;;;;;;;;;;5095971;28;20119;-71
2021/12/31 02:07:19;;;;;;;15.98;4.10;;;;;;;;;;5095278;28;20038;-71
2021/12/31 02:09:49;;;;;;;17.45;4.45;;;;;;;;;;5094880;28;20035;-71
2021/12/31 02:12:16;;;;;;;19.55;4.35;;;;;;;;;;5095345;28;20032;-71
2021/12/31 02:14:43;;;;;;;19.63;4.70;;;;;;;;;;5096122;28;20052;-72
2021/12/31 02:17:10;;;;;;;11.95;4.07;;;;;;;;;;5094240;28;20123;-71
2021/12/31 02:19:37;;;;;;;15.60;3.90;;;;;;;;;;5095555;28;20370;-70
2021/12/31 02:22:03;;;;;;;14.15;3.60;;;;;;;;;;5077598;28;20374;-71
2021/12/31 02:24:29;;;;;;;14.27;3.85;;;;;;;;;;5074244;28;20040;-71
2021/12/31 02:26:55;;;;;;;17.73;4.45;;;;;;;;;;5075102;28;20040;-71
2021/12/31 02:29:25;;;;;;;12.80;3.95;;;;;;;;;;5074986;28;20040;-71
2021/12/31 02:31:52;;;;;;;13.45;4.80;;;;;;;;;;5079346;28;20062;-71
2021/12/31 02:34:18;;;;;;;16.35;3.67;;;;;;;;;;5078712;28;20043;-71
2021/12/31 02:36:44;;;;;;;13.32;3.90;;;;;;;;;;5079323;28;20036;-71
2021/12/31 02:39:10;;;;;;;18.05;4.40;;;;;;;;;;5074089;28;20047;-71
2021/12/31 02:41:36;;;;;;;17.02;4.57;;;;;;;;;;5074915;28;20040;-71
2021/12/31 02:44:02;;;;;;;15.35;4.50;;;;;;;;;;5077227;28;20097;-71
2021/12/31 02:46:28;;;;;;;16.27;4.55;;;;;;;;;;5077260;28;20067;-71
2021/12/31 02:48:58;;;;;;;16.35;5.13;;;;;;;;;;5094960;28;20120;-71
2021/12/31 02:51:24;;;;;;;16.40;3.45;;;;;;;;;;5075273;28;20040;-70
2021/12/31 02:53:54;;;;;;;14.05;4.25;;;;;;;;;;5073751;28;20051;-71
2021/12/31 02:56:21;;;;;;;15.45;4.68;;;;;;;;;;5074477;28;20051;-71
2021/12/31 02:58:47;;;;;;;13.32;4.30;;;;;;;;;;5093332;28;20058;-71
2021/12/31 03:01:13;;;;;;;15.88;4.68;;;;;;;;;;5079701;28;20485;-71
2021/12/31 03:03:40;;;;;;;15.70;4.07;;;;;;;;;;5074690;28;20500;-71
2021/12/31 03:06:07;;;;;;;12.45;4.25;;;;;;;;;;5073588;28;20047;-71
2021/12/31 03:08:37;;;;;;;14.07;4.57;;;;;;;;;;5091598;28;20041;-71
2021/12/31 03:11:05;;;;;;;14.07;3.75;;;;;;;;;;5077826;28;20098;-71
2021/12/31 03:13:31;;;;;;;10.38;3.70;;;;;;;;;;5093869;28;20104;-72
2021/12/31 03:15:59;;;;;;;13.13;4.25;;;;;;;;;;5094472;28;20377;-72
2021/12/31 03:18:26;;;;;;;17.98;4.55;;;;;;;;;;5093793;28;20488;-71
2021/12/31 03:21:12;;;;;;;16.05;4.43;;;;;;;;;;5093807;28;20047;-71
2021/12/31 03:23:38;;;;;;;18.67;4.75;;;;;;;;;;5111586;28;20048;-74
2021/12/31 03:26:04;;;;;;;15.13;4.25;;;;;;;;;;5094125;28;20047;-72
2021/12/31 03:28:30;;;;;;;20.63;4.43;;;;;;;;;;5093962;28;20032;-73
2021/12/31 03:30:56;;;;;;;12.80;3.30;;;;;;;;;;5094312;28;20128;-73
2021/12/31 03:33:23;;;;;;;14.98;3.67;;;;;;;;;;5091410;28;20071;-71
2021/12/31 03:35:49;;;;;;;14.23;3.70;;;;;;;;;;5073290;28;20044;-73
2021/12/31 03:38:16;;;;;;;11.70;4.15;;;;;;;;;;5073717;28;20055;-72
2021/12/31 03:40:42;;;;;;;16.27;3.92;;;;;;;;;;5074021;28;20044;-72
2021/12/31 03:43:09;;;;;;;13.73;3.42;;;;;;;;;;5073113;28;20055;-72
2021/12/31 03:45:36;;;;;;;13.55;3.97;;;;;;;;;;5087522;28;20071;-72
2021/12/31 03:48:02;;;;;;;12.55;4.03;;;;;;;;;;5091588;28;20392;-73
2021/12/31 03:50:28;;;;;;;17.85;4.20;;;;;;;;;;5088220;28;20040;-73
2021/12/31 03:52:54;;;;;;;13.70;2.88;;;;;;;;;;5121397;28;20600;-71
2021/12/31 03:55:21;;;;;;;13.82;4.30;;;;;;;;;;5096856;28;20122;-71
2021/12/31 03:57:47;;;;;;;17.10;4.32;;;;;;;;;;5098578;28;20451;-71
2021/12/31 04:00:13;;;;;;;10.57;3.53;;;;;;;;;;5098651;28;20434;-72
2021/12/31 04:02:39;;;;;;;16.30;4.00;;;;;;;;;;5097674;28;20055;-72
2021/12/31 04:05:06;;;;;;;17.90;5.00;;;;;;;;;;5097198;28;20047;-71
2021/12/31 04:07:32;;;;;;;16.23;4.60;;;;;;;;;;5098003;28;20094;-71
2021/12/31 04:09:58;;;;;;;14.55;4.03;;;;;;;;;;5096628;28;20549;-71
2021/12/31 04:12:24;;;;;;;12.95;3.95;;;;;;;;;;5097818;28;20036;-71
2021/12/31 04:14:50;;;;;;;10.80;4.22;;;;;;;;;;5097988;28;20051;-72
2021/12/31 04:17:16;;;;;;;22.55;4.53;;;;;;;;;;5097192;28;20050;-72
2021/12/31 04:19:42;;;;;;;13.88;4.10;;;;;;;;;;5081399;28;20119;-72
2021/12/31 04:22:11;;;;;;;14.68;4.10;;;;;;;;;;5097602;28;20051;-72
2021/12/31 04:27:06;;;;;;;14.80;3.60;;;;;;;;;;5097649;28;20054;-72
2021/12/31 04:29:32;;;;;;;10.77;3.20;;;;;;;;;;5097571;28;20424;-73
2021/12/31 04:32:00;;;;;;;11.70;4.05;;;;;;;;;;5096492;28;20062;-71
2021/12/31 04:34:26;;;;;;;12.80;4.47;;;;;;;;;;5097268;28;20093;-71
2021/12/31 04:36:52;;;;;;;10.57;3.38;;;;;;;;;;5097499;28;20455;-71
2021/12/31 04:39:18;;;;;;;14.75;4.00;;;;;;;;;;5079975;28;20047;-71
2021/12/31 04:41:44;;;;;;;12.85;3.88;;;;;;;;;;5077538;28;20480;-74
2021/12/31 04:44:10;;;;;;;10.90;3.72;;;;;;;;;;5076322;28;20036;-73
2021/12/31 04:46:36;;;;;;;16.92;4.45;;;;;;;;;;5077155;28;20545;-73
2021/12/31 04:49:03;;;;;;;9.80;3.75;;;;;;;;;;5077326;28;20044;-73
2021/12/31 04:51:29;;;;;;;13.68;4.18;;;;;;;;;;5086189;28;20139;-74
2021/12/31 04:53:55;;;;;;;13.00;3.72;;;;;;;;;;5097032;28;20047;-72
2021/12/31 04:56:21;;;;;;;8.75;2.97;;;;;;;;;;5077966;28;20040;-72
2021/12/31 04:58:47;;;;;;;18.15;3.80;;;;;;;;;;5075963;28;20040;-73
2021/12/31 05:01:13;;;;;;;12.02;3.20;;;;;;;;;;5076727;28;20044;-73
2021/12/31 05:03:40;;;;;;;12.90;3.30;;;;;;;;;;5080991;28;20416;-73
2021/12/31 05:06:06;;;;;;;9.57;3.25;;;;;;;;;;5094916;28;20453;-73
2021/12/31 05:08:32;;;;;;;11.30;2.92;;;;;;;;;;5096830;28;20122;-73
2021/12/31 05:10:58;;;;;;;7.82;2.60;;;;;;;;;;5096756;28;20082;-72
2021/12/31 05:13:24;;;;;;;11.40;4.00;;;;;;;;;;5096059;28;20035;-71
2021/12/31 05:15:52;;;;;;;10.15;2.72;;;;;;;;;;5096766;28;20042;-72
2021/12/31 05:18:18;;;;;;;6.97;2.50;;;;;;;;;;5092729;28;20495;-71
2021/12/31 05:20:44;;;;;;;16.38;3.00;;;;;;;;;;5079242;28;20040;-72
2021/12/31 05:23:11;;;;;;;10.73;3.10;;;;;;;;;;5096544;28;20518;-72
2021/12/31 05:25:37;;;;;;;6.63;2.67;;;;;;;;;;5079612;28;20123;-71
2021/12/31 05:28:03;;;;;;;8.43;2.92;;;;;;;;;;5079094;28;20089;-72
2021/12/31 05:30:29;;;;;;;7.03;2.75;;;;;;;;;;5096312;28;20058;-71
2021/12/31 05:32:55;;;;;;;6.22;2.70;;;;;;;;;;5079203;28;20506;-71
2021/12/31 05:35:21;;;;;;;9.88;3.08;;;;;;;;;;5078384;28;20126;-71
2021/12/31 05:37:47;;;;;;;8.32;2.67;;;;;;;;;;5096049;28;20198;-71
2021/12/31 05:40:13;;;;;;;7.50;2.70;;;;;;;;;;5096164;28;20507;-72
2021/12/31 05:42:39;;;;;;;9.45;2.95;;;;;;;;;;5095740;28;20047;-71
2021/12/31 05:45:06;;;;;;;7.47;2.65;;;;;;;;;;5095499;28;20044;-73
2021/12/31 05:47:32;;;;;;;10.13;2.63;;;;;;;;;;5095099;28;20039;-73
2021/12/31 05:49:58;;;;;;;9.70;3.22;;;;;;;;;;5079225;28;20421;-74
2021/12/31 05:52:24;;;;;;;10.20;3.20;;;;;;;;;;5078974;28;20123;-75
2021/12/31 05:54:50;;;;;;;12.45;3.53;;;;;;;;;;5095355;28;20126;-74
2021/12/31 05:57:16;;;;;;;8.57;2.92;;;;;;;;;;5096186;28;20126;-74
2021/12/31 05:59:42;;;;;;;10.70;3.20;;;;;;;;;;5095562;28;20484;-73
2021/12/31 06:02:08;;;;;;;9.93;2.80;;;;;;;;;;5092869;28;20036;-73
2021/12/31 06:04:34;;;;;;;6.68;2.80;;;;;;;;;;5095711;28;20048;-74
2021/12/31 06:07:00;;;;;;;9.60;2.63;;;;;;;;;;5095692;28;20475;-73
2021/12/31 06:09:26;;;;;;;9.07;3.13;;;;;;;;;;5094906;28;20067;-74
2021/12/31 06:11:52;;;;;;;8.95;2.67;;;;;;;;;;5095941;28;20388;-76
2021/12/31 06:14:18;;;;;;;12.15;3.75;;;;;;;;;;5095508;28;20051;-76
2021/12/31 06:16:46;;;;;;;7.28;3.17;;;;;;;;;;5089229;28;20147;-75
2021/12/31 06:19:13;;;;;;;6.50;2.90;;;;;;;;;;5075219;28;20080;-75
2021/12/31 06:21:40;;;;;;;6.70;2.40;;;;;;;;;;5075424;28;20040;-75
2021/12/31 06:24:06;;;;;;;9.38;2.70;;;;;;;;;;5074654;28;20126;-76
2021/12/31 06:26:32;;;;;;;7.20;2.70;;;;;;;;;;5074813;28;20048;-74
2021/12/31 06:28:58;;;;;;;7.93;2.85;;;;;;;;;;5085401;28;20200;-73
2021/12/31 06:31:25;;;;;;;6.90;2.58;;;;;;;;;;5060249;28;20056;-74
2021/12/31 06:33:51;;;;;;;5.90;2.42;;;;;;;;;;5074816;28;20040;-75
2021/12/31 06:36:17;;;;;;;7.75;2.78;;;;;;;;;;5074694;28;20075;-76
2021/12/31 06:38:44;;;;;;;7.80;2.95;;;;;;;;;;5074447;28;20043;-75
2021/12/31 06:41:10;;;;;;;17.08;2.78;;;;;;;;;;5074997;28;20089;-71
2021/12/31 06:43:36;;;;;;;6.55;2.90;;;;;;;;;;5083600;28;20074;-71
2021/12/31 06:46:02;;;;;;;9.88;3.45;;;;;;;;;;5083532;28;20468;-72
2021/12/31 06:48:28;;;;;;;7.13;2.53;;;;;;;;;;5077992;28;20036;-73
2021/12/31 06:50:54;;;;;;;7.88;2.88;;;;;;;;;;5094085;28;20043;-73
2021/12/31 06:53:20;;;;;;;7.95;2.55;;;;;;;;;;5094241;28;20504;-72
2021/12/31 06:55:46;;;;;;;9.25;3.53;;;;;;;;;;5078027;28;20036;-71
2021/12/31 06:58:12;;;;;;;10.48;3.10;;;;;;;;;;5077108;28;20050;-71
2021/12/31 07:00:38;;;;;;;7.95;2.60;;;;;;;;;;5093363;28;20399;-73
2021/12/31 07:03:08;;;;;;;10.00;3.22;;;;;;;;;;5094746;28;20039;-72
2021/12/31 07:05:35;;;;;;;8.65;2.95;;;;;;;;;;5081252;28;20093;-71
2021/12/31 07:08:01;;;;;;;9.13;2.85;;;;;;;;;;5074685;28;20126;-72
2021/12/31 07:10:28;;;;;;;7.45;2.85;;;;;;;;;;5091522;28;20463;-72
2021/12/31 07:13:01;;;;;;;8.32;2.72;;;;;;;;;;5073730;28;20397;-72
2021/12/31 07:15:27;;;;;;;6.97;2.72;;;;;;;;;;5093044;28;20043;-74
2021/12/31 07:17:53;;;;;;;6.40;3.15;;;;;;;;;;5094565;28;20050;-73
2021/12/31 07:20:20;;;;;;;6.60;2.58;;;;;;;;;;5092848;28;20526;-72
2021/12/31 07:22:46;;;;;;;8.32;2.83;;;;;;;;;;5077689;28;20086;-73
2021/12/31 07:25:12;;;;;;;11.40;3.28;;;;;;;;;;5094411;28;20043;-73
2021/12/31 07:27:38;;;;;;;9.73;3.55;;;;;;;;;;5094025;28;20054;-74
2021/12/31 07:30:05;;;;;;;8.77;3.20;;;;;;;;;;5092129;28;20112;-73
2021/12/31 07:32:38;;;;;;;8.45;2.72;;;;;;;;;;5076942;28;20055;-72
2021/12/31 07:35:04;;;;;;;10.55;3.05;;;;;;;;;;5076571;28;20069;-72
2021/12/31 07:37:31;;;;;;;16.67;3.33;;;;;;;;;;5077424;28;20400;-72
2021/12/31 07:40:04;;;;;;;8.82;3.40;;;;;;;;;;5076811;28;20438;-72
2021/12/31 07:42:30;;;;;;;9.52;3.08;;;;;;;;;;5077519;28;20099;-72
2021/12/31 07:44:56;;;;;;;6.57;3.08;;;;;;;;;;5093105;28;20091;-72
2021/12/31 07:47:22;;;;;;;8.60;3.03;;;;;;;;;;5092998;28;20031;-71
2021/12/31 07:49:48;;;;;;;6.10;2.83;;;;;;;;;;5094208;28;20047;-71
2021/12/31 07:52:14;;;;;;;9.30;3.20;;;;;;;;;;5093838;28;20050;-71
2021/12/31 07:54:40;;;;;;;8.90;3.13;;;;;;;;;;5089763;28;20047;-71
2021/12/31 07:57:06;;;;;;;10.93;4.38;;;;;;;;;;5094079;28;20111;-71
2021/12/31 07:59:32;;;;;;;8.30;2.97;;;;;;;;;;5094061;28;20043;-74
2021/12/31 08:01:58;;;;;;;7.05;3.15;;;11.60;99.90;;;;;;5093527;28;20063;-74
2021/12/31 08:04:24;;;;;;;10.73;3.55;;;12.90;99.90;;;;;;5094077;28;20541;-73
2021/12/31 08:06:50;;;;;;;9.27;3.58;;;12.20;99.90;;;;;;5077355;28;20028;-73
2021/12/31 08:09:15;;;;;;;6.45;2.67;;;12.90;99.90;;;;;;5082790;28;20089;-74
2021/12/31 08:11:41;;;;;;;9.63;3.33;;;11.80;99.90;;;;;;5094493;28;20043;-73
2021/12/31 08:14:07;;;;;;;6.28;2.55;;;12.20;99.90;;;;;;5094001;28;20031;-73
2021/12/31 08:16:33;;;;;;;13.38;3.80;;;12.00;99.90;;;;;;5092925;28;20113;-74
2021/12/31 08:18:59;;;;;;;15.55;3.90;;;11.90;99.90;;;;;;5085946;28;20039;-74
2021/12/31 08:21:24;;;;;;;8.13;3.22;;;11.90;99.90;;;;;;5073791;28;20119;-74
2021/12/31 08:23:50;;;;;;;10.30;3.13;;;11.80;99.90;;;;;;5081369;28;20043;-74
2021/12/31 08:26:16;;;;;;;11.50;3.55;;;12.20;99.90;;;;;;5093864;28;20160;-73
2021/12/31 08:28:42;;;;;;;9.07;2.88;;;11.70;99.90;;;;;;5077105;28;20035;-74
2021/12/31 08:31:08;;;;;;;10.43;3.55;;;12.40;99.90;;;;;;5091676;28;20058;-73
2021/12/31 08:33:33;;;;;;;6.30;2.53;;;12.20;99.90;;;;;;5080043;28;20036;-74
2021/12/31 08:35:59;;;;;;;8.27;2.72;;;12.40;99.90;;;;;;5109852;28;20180;-72
2021/12/31 08:38:25;;;;;;;8.55;2.80;;;12.80;99.90;;;;;;5092381;28;20073;-71
2021/12/31 08:40:51;;;;;;;10.00;3.50;;;13.10;99.90;;;;;;5094536;28;20052;-72
2021/12/31 08:43:17;;;;;;;11.02;3.42;;;12.60;99.90;;;;;;5096306;28;20047;-71
2021/12/31 08:45:43;;;;;;;7.55;3.00;;;12.10;99.90;;;;;;5063576;28;20040;-72
2021/12/31 08:48:09;;;;;;;12.77;4.05;;;12.40;99.90;;;;;;5077124;28;20040;-72
2021/12/31 08:50:35;;;;;;;11.38;3.60;;;12.20;99.90;;;;;;5076506;28;20047;-72
2021/12/31 08:53:02;;;;;;;8.90;3.08;;;12.40;99.90;;;;;;5077086;28;20046;-75
2021/12/31 08:55:28;;;;;;;10.45;2.90;;;11.90;99.90;;;;;;5071487;28;20047;-72
2021/12/31 08:57:54;;;;;;;9.45;2.83;;;13.50;99.90;;;;;;5080655;28;20048;-74
2021/12/31 09:00:19;;;;;;;8.30;2.97;;;12.20;99.90;;;;;;5081462;28;20459;-74
2021/12/31 09:02:46;;;;;;;9.07;3.08;;;11.90;99.90;;;;;;5075298;28;20047;-74
2021/12/31 09:05:12;;;;;;;7.55;2.95;;;12.00;99.90;;;;;;5094309;28;20059;-72
2021/12/31 09:07:39;;;;;;;7.72;2.78;;;12.80;99.90;;;;;;5074769;28;20042;-74
2021/12/31 09:10:05;;;;;;;12.45;3.28;;;12.30;99.90;;;;;;5125387;27;20400;-69
2021/12/31 09:12:31;;;;;;;8.15;3.40;;;12.00;99.90;;;;;;5094153;28;20429;-70
2021/12/31 09:14:56;;;;;;;10.73;3.28;;;12.70;99.90;;;;;;5094248;28;20086;-73
2021/12/31 09:17:22;;;;;;;10.02;3.15;;;13.20;99.90;;;;;;5094575;28;20071;-71
2021/12/31 09:19:49;;;;;;;9.23;3.13;;;11.90;99.90;;;;;;5087360;28;20048;-71
2021/12/31 09:22:15;;;;;;;9.75;2.97;;;12.20;99.90;;;;;;5091162;28;20455;-71
2021/12/31 09:24:41;;;;;;;8.52;2.95;;;12.40;99.90;;;;;;5089521;28;20527;-73
2021/12/31 09:27:07;;;;;;;10.32;3.15;;;13.30;99.90;;;;;;5076435;28;20075;-72
2021/12/31 09:29:34;;;;;;;11.02;3.88;;;13.30;99.90;;;;;;5094677;28;20089;-73
2021/12/31 09:31:59;;;;;;;13.48;3.45;;;12.40;99.90;;;;;;5094286;28;20059;-72
2021/12/31 09:34:25;;;;;;;12.63;3.42;;;13.60;99.90;;;;;;5089640;28;20043;-72
2021/12/31 09:36:51;;;;;;;12.25;3.85;;;13.00;99.90;;;;;;5091092;28;20123;-72
2021/12/31 09:39:16;;;;;;;11.20;3.30;;;13.30;99.90;;;;;;5087726;28;20437;-73
2021/12/31 09:41:43;;;;;;;10.52;3.38;;;11.90;99.90;;;;;;5077385;28;20388;-72
2021/12/31 09:44:10;;;;;;;11.65;3.58;;;12.00;99.90;;;;;;5094189;28;20850;-73
2021/12/31 09:46:36;;;;;;;11.50;4.18;;;11.80;99.90;;;;;;5076236;28;20054;-73
2021/12/31 09:49:04;;;;;;;7.95;3.03;;;;;;;;;;5093300;28;20460;-73
2021/12/31 09:51:31;;;;;;;12.18;3.67;;;11.30;99.90;;;;;;5088806;28;20512;-73
2021/12/31 09:53:59;;;;;;;9.95;3.35;;;;;;;;;;5074855;28;20035;-72
2021/12/31 09:56:25;;;;;;;9.65;4.03;;;11.70;99.90;;;;;;5085611;28;20568;-74
2021/12/31 09:58:51;;;;;;;8.68;3.92;;;12.40;99.90;;;;;;5093138;28;20043;-73
2021/12/31 10:01:17;;;;;;;9.55;4.00;;;11.70;99.90;;;;;;5093163;28;20084;-74
2021/12/31 10:03:53;;;;;;;8.98;3.47;;;;;;;;;;5094056;28;20101;-74
2021/12/31 10:06:19;;;;;;;13.15;4.05;;;;;;;;;;5094156;28;20488;-74
2021/12/31 10:08:46;;;;;;;10.57;4.03;;;;;;;;;;5093311;28;20046;-75
2021/12/31 10:11:18;;;;;;;8.75;4.22;;;11.70;99.90;;;;;;5076965;28;20066;-73
2021/12/31 10:14:00;;;;;;;12.50;3.80;;;11.70;99.90;;;;;;5087338;28;20055;-76
2021/12/31 10:16:29;;;;;;;12.25;4.55;;;11.60;99.90;;;;;;5092846;28;20445;-74
2021/12/31 10:19:06;;;;;;;17.42;3.97;;;12.90;99.90;;;;;;5092762;28;20059;-71
2021/12/31 10:21:41;;;;;;;11.68;4.15;;;11.60;99.90;;;;;;5074388;28;20126;-74
2021/12/31 10:24:25;;;;;;;;;;;11.50;99.90;;;;;;5092467;28;20048;-72
2021/12/31 10:26:57;;;;;;;13.32;4.18;;;11.50;99.90;;;;;;5111701;27;19931;-70
2021/12/31 10:29:23;;;;;;;11.60;4.38;;;;;;;;;;5072453;28;20044;-73
2021/12/31 10:31:53;;;;;;;13.10;4.50;;;;;;;;;;5072620;28;20059;-71
2021/12/31 10:34:36;;;;;;;12.38;3.95;;;;;;;;;;5072980;28;20048;-72
2021/12/31 10:37:24;;;;;;;15.13;3.97;;;;;;;;;;5090152;28;20059;-72
2021/12/31 10:39:55;;;;;;;12.98;4.80;;;;;;;;;;5090762;28;20123;-71
2021/12/31 10:42:28;;;;;;;12.40;4.70;;;;;;;;;;5077411;28;20387;-73
2021/12/31 10:44:55;;;;;;;15.82;4.38;;;;;;;;;;5092086;28;20083;-71
2021/12/31 10:47:31;;;;;;;17.42;4.65;;;;;;;;;;5092584;28;20040;-73
2021/12/31 10:50:08;;;;;;;10.52;4.00;;;;;;;;;;5090876;28;20031;-75
2021/12/31 10:52:54;;;;;;;12.88;4.57;;;;;;;;;;5091543;28;20043;-76
2021/12/31 10:55:25;;;;;;;11.93;4.07;;;;;;;;;;5075187;28;20122;-73
2021/12/31 10:58:01;;;;;;;9.13;4.07;;;;;;;;;;5092409;28;20169;-70
2021/12/31 11:00:29;;;;;;;13.25;4.90;;;;;;;;;;5110889;28;20043;-71
2021/12/31 11:02:56;;;;;;;10.68;3.95;;;;;;;;;;5091337;28;20093;-72
2021/12/31 11:05:23;;;;;;;14.55;4.60;;;;;;;;;;5090662;28;20040;-72
2021/12/31 11:07:50;;;;;;;16.95;5.32;;;;;;;;;;5074836;28;20051;-72
2021/12/31 11:10:17;;;;;;;15.57;4.72;;;;;;;;;;5091732;28;20047;-74
2021/12/31 11:12:47;;;;;;;10.98;4.63;;;11.50;99.90;;;;;;5091468;28;20142;-73
2021/12/31 11:15:13;;;;;;;17.48;5.55;;;;;;;;;;5091763;28;20065;-70
2021/12/31 11:17:39;;;;;;;12.07;4.95;;;;;;;;;;5091176;28;20054;-73
2021/12/31 11:20:07;;;;;;;11.35;4.93;;;;;;;;;;5089374;28;20089;-69
2021/12/31 11:22:33;;;;;;;9.90;4.68;;;;;;;;;;5110478;28;20047;-68
2021/12/31 11:25:31;;;;;;;12.50;4.72;;;;;;;;;;5091372;28;21946;-68
2021/12/31 11:27:59;;;;;;;11.35;4.72;;;;;;;;;;5048117;28;20032;-68
2021/12/31 11:30:28;;;;;;;14.27;4.85;;;;;;;;;;5092292;28;20496;-69
2021/12/31 11:33:00;;;;;;;14.45;4.80;;;;;;;;;;5109680;28;20122;-69
2021/12/31 11:35:32;;;;;;;12.63;6.45;;;;;;;;;;5068175;28;20118;-69
2021/12/31 11:37:59;;;;;;;17.08;6.30;;;;;;;;;;5091172;28;20124;-69
2021/12/31 11:40:32;;;;;;;12.63;5.43;;;;;;;;;;5090522;28;20155;-69
2021/12/31 11:43:19;;;;;;;15.82;6.10;;;;;;;;;;5092214;28;20073;-69
2021/12/31 11:46:05;;;;;;;17.15;7.25;;;;;;;;;;5091995;28;20123;-68
2021/12/31 11:48:47;;;;;;;14.15;5.18;;;;;;;;;;5091000;28;20403;-69
2021/12/31 11:51:14;;;;;;;15.30;6.35;;;;;;;;;;5062432;28;20046;-68
2021/12/31 11:53:58;;;;;;;12.70;5.00;;;;;;;;;;5089641;28;20046;-67
2021/12/31 11:56:36;;;;;;;14.68;5.93;;;;;;;;;;5091599;28;20050;-68
2021/12/31 11:59:11;;;;;;;13.38;5.68;;;;;;;;;;5091788;28;20059;-68
2021/12/31 12:01:37;;;;;;;10.75;5.13;;;;;;;;;;5091086;28;20040;-67
2021/12/31 12:04:30;;;;;;;11.00;4.18;;;;;;;;;;5091735;28;20131;-68
2021/12/31 12:07:11;;;;;;;10.35;5.10;;;;;;;;;;5073409;28;20058;-68
2021/12/31 12:09:37;;;;;;;10.25;4.80;;;;;;;;;;5090840;28;20561;-69
2021/12/31 12:12:08;;;;;;;13.75;5.50;;;;;;;;;;5091369;28;20059;-71
2021/12/31 12:14:37;;;;;;;10.05;4.30;;;;;;;;;;5090902;28;20071;-70
2021/12/31 12:17:04;;;;;;;15.93;5.05;;;;;;;;;;5075520;28;20036;-69
2021/12/31 12:19:51;;;;;;;12.90;4.82;;;;;;;;;;5074462;28;20097;-69
2021/12/31 12:22:26;;;;;;;10.48;4.05;;;;;;;;;;5074604;28;20213;-71
2021/12/31 12:24:52;;;;;;;;;;;;;;;;;;5075156;28;20043;-70
2021/12/31 12:27:19;;;;;;;12.70;6.03;;;;;;;;;;5128256;27;19916;-69
2021/12/31 12:29:46;;;;;;;11.40;5.00;;;;;;;;;;5094010;28;20408;-68
2021/12/31 12:32:13;;;;;;;9.50;4.50;;;;;;;;;;5094822;28;20047;-68
2021/12/31 12:34:39;;;;;;;13.95;5.30;;;;;;;;;;5078526;28;20063;-69
2021/12/31 12:37:05;;;;;;;10.27;4.35;;;;;;;;;;5094299;28;20043;-69
2021/12/31 12:39:31;;;;;;;12.18;4.70;;;;;;;;;;5078093;28;20050;-68
2021/12/31 12:41:57;;;;;;;12.85;4.47;;;;;;;;;;5095177;28;20039;-68
2021/12/31 12:44:23;;;;;;;13.57;4.28;;;;;;;;;;5070778;28;20043;-69
2021/12/31 12:46:56;;;;;;;8.73;4.50;;;;;;;;;;5074643;28;20492;-68
2021/12/31 12:49:24;;;;;;;10.93;4.88;;;;;;;;;;5075000;28;20066;-69
2021/12/31 12:51:50;;;;;;;11.52;4.78;;;;;;;;;;5092860;28;20059;-69
2021/12/31 12:54:23;;;;;;;10.07;4.35;;;;;;;;;;5093844;28;20038;-68
2021/12/31 12:56:50;;;;;;;9.50;4.00;;;;;;;;;;5094356;28;20523;-68
2021/12/31 12:59:20;;;;;;;13.07;5.13;;;;;;;;;;5092241;28;20505;-69
2021/12/31 13:01:49;;;;;;;10.68;5.13;;;;;;;;;;5074431;28;20060;-69
2021/12/31 13:04:16;;;;;;;9.05;4.30;;;;;;;;;;5082013;28;20115;-69
2021/12/31 13:06:44;;;;;;;8.63;3.80;;;;;;;;;;5094809;28;20127;-69
2021/12/31 13:09:15;;;;;;;12.77;5.47;;;;;;;;;;5089157;28;20032;-68
2021/12/31 13:11:46;;;;;;;9.60;4.28;;;;;;;;;;5092602;28;20120;-69
2021/12/31 13:14:17;;;;;;;10.68;4.18;;;;;;;;;;5092946;28;20038;-69
2021/12/31 13:16:43;;;;;;;12.13;5.20;;;;;;;;;;5091078;28;20481;-70
2021/12/31 13:19:11;;;;;;;17.67;5.25;;;;;;;;;;5083266;28;20113;-70
2021/12/31 13:21:38;;;;;;;16.15;4.75;;;;;;;;;;5072496;28;20485;-68
2021/12/31 13:24:04;;;;;;;13.57;4.53;;;;;;;;;;5074222;28;20136;-69
2021/12/31 13:26:31;;;;;;;15.50;5.47;;;;;;;;;;5072153;28;20048;-69
2021/12/31 13:28:58;;;;;;;15.63;5.88;;;;;;;;;;5074911;28;20118;-71
2021/12/31 13:31:33;;;;;;;18.20;6.38;;;;;;;;;;5073860;28;20631;-71
2021/12/31 13:34:09;;;;;;;23.65;6.72;;;;;;;;;;5073022;28;20136;-72
2021/12/31 13:36:46;;;;;;;17.52;5.88;;;;;;;;;;5075113;28;20173;-71
2021/12/31 13:39:20;;;;;;;16.38;6.35;;;;;;;;;;5093112;28;20052;-71
2021/12/31 13:41:51;;;;;;;19.20;6.57;;;;;;;;;;5091924;28;20357;-71
2021/12/31 13:44:32;;;;;;;20.83;6.03;;;;;;;;;;5093106;28;20047;-71
2021/12/31 13:47:10;;;;;;;13.45;5.07;;;;;;;;;;5091183;28;20044;-70
2021/12/31 13:49:38;;;;;;;18.95;6.32;;;;;;;;;;5093409;28;20446;-71
2021/12/31 13:52:24;;;;;;;23.65;6.78;;;;;;;;;;5093120;28;20392;-72
2021/12/31 13:54:51;;;;;;;20.52;6.38;;;;;;;;;;5073252;28;20536;-72
2021/12/31 13:57:26;;;;;;;24.55;6.45;;;;;;;;;;5093264;28;20040;-72
2021/12/31 13:59:53;;;;;;;24.27;6.40;;;;;;;;;;5075515;28;20096;-71
2021/12/31 14:02:24;;;;;;;19.95;6.50;;;;;;;;;;5092620;28;20095;-71
2021/12/31 14:04:53;;;;;;;26.13;6.63;;;;;;;;;;5092890;28;20047;-72
2021/12/31 14:10:06;;;;;;;23.02;7.35;;;;;;;;;;5092506;28;20046;-72
2021/12/31 14:12:42;;;;;;;15.68;5.70;;;;;;;;;;5092502;28;20494;-72
2021/12/31 14:15:09;;;;;;;20.35;6.28;;;;;;;;;;5077220;28;20432;-74
2021/12/31 14:17:35;;;;;;;17.52;6.40;;;;;;;;;;5072883;28;20511;-71
2021/12/31 14:20:04;;;;;;;22.23;11.30;;;;;;;;;;5070581;28;20067;-72
2021/12/31 14:22:30;;;;;;;19.13;5.82;;;;;;;;;;5071132;28;20036;-72
2021/12/31 14:24:56;;;;;;;19.92;7.85;;;;;;;;;;5072319;28;20125;-72
2021/12/31 14:27:22;;;;;;;17.63;7.05;;;;;;;;;;5072128;28;20083;-72